Time;durP1;ratioP1;P1;durP2;ratioP2;P2;SDS_P1;SDS_P2;PMS_P1;PMS_P2;Temp;Humidity;BMP_temperature;BMP_pressure;BME280_temperature;BME280_humidity;BME280_pressure;Samples;Min_cycle;Max_cycle;Signal;HPM_P1;HPM_P2
2022/01/27 00:00:48;;;;;;;11.57;10.77;;;;;;;-0.86;74.40;93374.28;5012702;28;20223;-82
2022/01/27 00:05:54;;;;;;;12.07;11.13;;;;;;;-0.95;74.64;93378.00;5012904;28;20254;-81
2022/01/27 00:08:47;;;;;;;11.77;11.00;;;;;;;-0.86;74.46;93387.91;5012364;28;20696;-81
2022/01/27 00:11:16;;;;;;;11.00;10.20;;;;;;;-0.89;74.81;93366.97;5011974;28;20223;-79
2022/01/27 00:13:46;;;;;;;11.37;10.57;;;;;;;-1.02;75.02;93354.09;5010424;28;20194;-81
2022/01/27 00:16:16;;;;;;;10.73;9.97;;;;;;;-1.04;75.06;93374.03;5012820;28;20219;-81
2022/01/27 00:18:44;;;;;;;12.13;11.27;;;;;;;-0.90;75.17;93375.66;5011426;28;20203;-81
2022/01/27 00:21:10;;;;;;;12.07;11.37;;;;;;;-0.96;75.79;93368.72;5012414;28;20199;-81
2022/01/27 00:23:36;;;;;;;12.20;11.40;;;;;;;-0.76;74.58;93367.00;5012052;28;20199;-80
2022/01/27 00:26:02;;;;;;;11.83;10.83;;;;;;;-1.02;73.89;93333.59;5013259;28;20214;-81
2022/01/27 00:28:28;;;;;;;11.70;10.90;;;;;;;-1.12;73.74;93328.06;5014619;28;20250;-81
2022/01/27 00:30:53;;;;;;;10.83;10.10;;;;;;;-0.99;74.31;93351.16;5011723;28;20235;-81
2022/01/27 00:33:19;;;;;;;10.63;9.93;;;;;;;-0.86;73.40;93356.34;5013832;28;20188;-81
2022/01/27 00:35:44;;;;;;;10.73;10.03;;;;;;;-0.69;74.07;93383.22;5011106;28;20238;-81
2022/01/27 00:38:10;;;;;;;11.00;10.10;;;;;;;-0.80;74.13;93355.59;5012245;28;20215;-81
2022/01/27 00:40:35;;;;;;;11.33;10.63;;;;;;;-0.92;73.79;93341.75;5012101;28;20238;-81
2022/01/27 00:43:01;;;;;;;12.80;11.87;;;;;;;-1.00;73.63;93318.84;5011914;28;20215;-80
2022/01/27 00:45:29;;;;;;;11.43;10.73;;;;;;;-0.55;72.89;93379.72;5011019;28;20219;-80
2022/01/27 00:47:55;;;;;;;11.77;10.93;;;;;;;-0.74;73.51;93357.38;5010875;28;20251;-81
2022/01/27 00:50:20;;;;;;;11.80;11.00;;;;;;;-0.62;73.00;93363.50;5010999;28;20231;-81
2022/01/27 00:52:53;;;;;;;12.00;11.30;;;;;;;-0.48;72.91;93363.38;5011290;28;20210;-81
2022/01/27 00:55:20;;;;;;;11.70;11.00;;;;;;;-0.41;72.37;93376.22;5011331;28;20239;-81
2022/01/27 01:00:24;;;;;;;14.27;13.33;;;;;;;-0.38;73.16;93376.63;5013612;28;20229;-81
2022/01/27 01:03:00;;;;;;;10.50;9.87;;;;;;;-0.77;72.78;93332.13;5011449;28;20211;-81
2022/01/27 01:07:55;;;;;;;10.97;10.27;;;;;;;-0.48;72.87;93376.19;5012996;28;20184;-80
2022/01/27 01:15:48;;;;;;;10.50;9.90;;;;;;;-0.63;73.32;93351.69;5010005;28;20218;-80
2022/01/27 01:34:25;;;;;;;10.67;10.07;;;;;;;-0.64;72.24;93334.75;5010671;28;20241;-80
2022/01/27 01:39:18;;;;;;;10.87;10.17;;;;;;;-0.61;72.63;93339.47;5009904;28;20226;-81
2022/01/27 01:41:43;;;;;;;10.07;9.57;;;;;;;-0.34;71.89;93349.59;5012092;28;20242;-80
2022/01/27 01:44:09;;;;;;;10.47;9.87;;;;;;;-0.37;72.30;93344.06;5036843;28;20324;-80
2022/01/27 01:46:35;;;;;;;9.97;9.27;;;;;;;-0.45;71.95;93347.59;5034553;28;20200;-80
2022/01/27 01:49:00;;;;;;;10.47;9.93;;;;;;;-0.62;73.47;93348.13;5011603;28;20230;-81
2022/01/27 01:51:28;;;;;;;9.60;9.00;;;;;;;-0.49;73.06;93341.28;5011590;28;20210;-81
2022/01/27 01:53:55;;;;;;;11.03;10.47;;;;;;;-0.43;72.68;93342.28;5034120;28;20227;-81
2022/01/27 01:56:21;;;;;;;9.93;9.43;;;;;;;-0.46;72.69;93338.34;5010058;28;20195;-80
2022/01/27 01:58:47;;;;;;;10.37;9.57;;;;;;;-0.64;72.90;93302.19;5008902;28;20235;-81
2022/01/27 02:01:13;;;;;;;9.80;9.23;;;;;;;-0.54;73.30;93335.94;5010884;28;20211;-80
2022/01/27 02:03:38;;;;;;;9.77;9.27;;;;;;;-0.52;73.75;93310.91;5010042;28;20199;-80
2022/01/27 02:06:05;;;;;;;9.90;9.40;;;;;;;-0.51;73.58;93334.75;5010528;28;20215;-80
2022/01/27 02:08:40;;;;;;;10.47;9.87;;;;;;;-0.52;73.58;93339.13;5011228;28;20194;-80
2022/01/27 02:19:09;;;;;;;11.13;10.43;;;;;;;-0.65;72.10;93276.75;5008424;28;20237;-80
2022/01/27 02:21:52;;;;;;;10.27;9.87;;;;;;;-0.66;71.79;93286.22;5010491;28;20230;-80
2022/01/27 02:24:18;;;;;;;9.53;9.10;;;;;;;-0.55;71.56;93303.59;5008588;28;20234;-80
2022/01/27 02:26:44;;;;;;;10.63;10.13;;;;;;;-0.41;70.58;93310.34;5009739;28;20203;-81
2022/01/27 02:29:10;;;;;;;10.50;10.03;;;;;;;-1.06;69.86;93199.22;5009524;28;20231;-80
2022/01/27 02:31:36;;;;;;;9.13;8.73;;;;;;;-0.44;68.15;93303.03;5010032;28;20214;-80
2022/01/27 02:34:05;;;;;;;9.93;9.43;;;;;;;-0.39;67.90;93328.88;5009053;28;20253;-80
2022/01/27 02:36:31;;;;;;;9.20;8.80;;;;;;;-0.94;69.40;93252.25;5008924;28;20192;-81
2022/01/27 02:38:57;;;;;;;10.50;10.00;;;;;;;-0.46;69.71;93327.28;5009229;28;20278;-80
2022/01/27 02:41:26;;;;;;;10.27;9.83;;;;;;;-0.56;68.38;93296.09;5008462;28;20222;-80
2022/01/27 02:43:54;;;;;;;9.70;9.20;;;;;;;-0.44;69.77;93322.75;5009572;28;20219;-81
2022/01/27 02:46:30;;;;;;;9.80;9.30;;;;;;;-0.53;70.53;93321.34;5009741;28;20187;-80
2022/01/27 02:48:57;;;;;;;9.10;8.70;;;;;;;-0.58;70.27;93305.75;5009096;28;20239;-79
2022/01/27 02:51:23;;;;;;;11.23;10.63;;;;;;;-0.72;71.08;93309.28;5009925;28;20190;-80
2022/01/27 02:53:48;;;;;;;9.10;8.60;;;;;;;-0.56;71.24;93316.63;5008065;28;20195;-80
2022/01/27 02:56:14;;;;;;;10.20;9.70;;;;;;;-0.46;70.47;93330.63;5010459;28;20198;-80
2022/01/27 02:58:39;;;;;;;9.97;9.57;;;;;;;-0.50;71.42;93316.59;5008922;28;20221;-80
2022/01/27 03:01:05;;;;;;;9.20;8.70;;;;;;;-0.82;71.42;93283.22;5009502;28;20221;-80
2022/01/27 03:03:30;;;;;;;11.17;10.67;;;;;;;-0.59;71.80;93322.91;5010850;28;20191;-80
2022/01/27 03:05:56;;;;;;;10.57;10.17;;;;;;;-0.51;72.33;93319.38;5007144;28;20219;-80
2022/01/27 03:08:21;;;;;;;10.17;9.67;;;;;;;-0.49;72.66;93320.78;5010136;28;20235;-80
2022/01/27 03:11:00;;;;;;;10.30;9.80;;;;;;;-0.72;72.39;93307.50;5012479;28;20226;-80
2022/01/27 03:13:28;;;;;;;9.77;9.27;;;;;;;-0.67;72.96;93322.31;5013875;28;20266;-80
2022/01/27 03:15:53;;;;;;;10.47;9.97;;;;;;;-0.56;72.89;93327.66;5013927;28;20266;-80
2022/01/27 03:18:18;;;;;;;10.03;9.53;;;;;;;-0.77;73.42;93319.31;5014677;28;20187;-80
2022/01/27 03:20:44;;;;;;;9.97;9.53;;;;;;;-0.90;73.33;93273.16;5013485;28;20238;-80
2022/01/27 03:23:10;;;;;;;10.47;9.97;;;;;;;-0.58;73.37;93292.94;5013141;28;20230;-80
2022/01/27 03:25:36;;;;;;;11.00;10.50;;;;;;;-0.87;72.62;93260.72;5012958;28;20227;-81
2022/01/27 03:28:01;;;;;;;10.30;9.80;;;;;;;-0.80;73.36;93291.50;5014238;28;20187;-81
2022/01/27 03:30:26;;;;;;;10.00;9.60;;;;;;;-0.72;72.28;93297.25;5012982;28;20219;-80
2022/01/27 03:32:52;;;;;;;10.63;10.13;;;;;;;-0.80;72.94;93307.69;5013862;28;20201;-80
2022/01/27 03:35:17;;;;;;;11.73;11.23;;;;;;;-0.76;72.26;93300.38;5013514;28;20967;-80
2022/01/27 03:37:43;;;;;;;10.13;9.63;;;;;;;-0.66;72.50;93331.56;5013479;28;21003;-80
2022/01/27 03:40:09;;;;;;;9.30;8.90;;;;;;;-0.60;72.62;93320.53;5013247;28;20223;-80
2022/01/27 03:42:42;;;;;;;9.80;9.40;;;;;;;-0.81;72.01;93292.50;5013116;28;20218;-80
2022/01/27 03:45:08;;;;;;;10.37;9.87;;;;;;;-0.49;71.73;93325.09;5012436;28;20234;-79
2022/01/27 03:47:34;;;;;;;9.57;9.17;;;;;;;-0.57;71.59;93320.16;5013222;28;20195;-80
2022/01/27 03:49:59;;;;;;;10.73;10.13;;;;;;;-0.80;71.74;93296.63;5011142;28;20219;-80
2022/01/27 03:52:25;;;;;;;9.87;9.47;;;;;;;-0.79;70.96;93296.44;5013155;28;20267;-80
2022/01/27 03:54:50;;;;;;;9.77;9.37;;;;;;;-0.60;72.36;93334.16;5012500;28;20270;-80
2022/01/27 03:57:16;;;;;;;11.07;10.50;;;;;;;-0.66;72.39;93329.00;5012481;28;20222;-81
2022/01/27 03:59:41;;;;;;;9.97;9.47;;;;;;;-0.84;72.79;93310.81;5012198;28;20274;-80
2022/01/27 04:02:07;;;;;;;10.07;9.57;;;;;;;-0.60;73.10;93343.63;5011610;28;20752;-83
2022/01/27 04:04:32;;;;;;;10.60;10.10;;;;;;;-0.81;72.97;93316.34;5013652;28;20230;-83
2022/01/27 04:06:59;;;;;;;10.30;9.73;;;;;;;-0.78;73.90;93333.88;5012564;28;20206;-84
2022/01/27 04:09:24;;;;;;;10.50;10.10;;;;;;;-0.82;73.22;93314.75;5012677;28;20235;-84
2022/01/27 04:11:50;;;;;;;10.90;10.40;;;;;;;-0.77;73.57;93316.75;5012508;28;20195;-85
2022/01/27 04:14:15;;;;;;;10.77;10.27;;;;;;;-0.53;73.18;93336.75;5012632;28;20227;-84
2022/01/27 04:16:41;;;;;;;11.67;10.97;;;;;;;-0.59;73.15;93338.28;5010735;28;20192;-85
2022/01/27 04:19:07;;;;;;;10.50;10.03;;;;;;;-0.59;73.19;93347.78;5009381;28;20223;-85
2022/01/27 04:21:32;;;;;;;11.67;11.17;;;;;;;-0.71;74.14;93342.41;5009447;28;20242;-85
2022/01/27 04:23:58;;;;;;;10.10;9.60;;;;;;;-0.62;73.62;93346.38;5009873;28;20235;-83
2022/01/27 04:26:35;;;;;;;11.03;10.50;;;;;;;-0.91;74.00;93307.44;5012092;28;20196;-84
2022/01/27 04:29:01;;;;;;;10.97;10.47;;;;;;;-0.82;73.97;93308.84;5011345;28;20345;-86
2022/01/27 04:31:28;;;;;;;10.60;10.07;;;;;;;-0.46;73.65;93342.66;5012093;28;20191;-86
2022/01/27 04:33:54;;;;;;;10.80;10.30;;;;;;;-0.53;74.42;93334.19;5010105;28;20239;-86
2022/01/27 04:36:26;;;;;;;11.00;10.50;;;;;;;-0.45;74.58;93359.66;5011804;28;20203;-87
2022/01/27 04:39:00;;;;;;;10.97;10.43;;;;;;;-0.76;74.94;93290.13;5011206;28;20242;-86
2022/01/27 04:41:36;;;;;;;11.47;10.77;;;;;;;-0.62;74.63;93335.31;5010688;28;20218;-85
2022/01/27 04:44:13;;;;;;;11.37;10.67;;;;;;;-0.51;75.94;93334.75;5010444;28;20251;-86
2022/01/27 04:46:50;;;;;;;11.30;10.63;;;;;;;-0.78;74.54;93328.00;5011567;28;20218;-86
2022/01/27 04:49:15;;;;;;;10.60;10.10;;;;;;;-0.68;75.75;93357.41;4995396;28;20237;-85
2022/01/27 04:51:41;;;;;;;14.50;13.77;;;;;;;-0.86;74.12;93326.41;5010820;28;20255;-86
2022/01/27 04:54:31;;;;;;;11.67;10.67;;;;;;;-1.11;74.43;93311.69;5012739;28;20262;-86
2022/01/27 04:57:00;;;;;;;11.83;11.10;;;;;;;-0.76;75.03;93361.88;5012620;28;20191;-85
2022/01/27 04:59:29;;;;;;;11.97;11.27;;;;;;;-0.89;75.19;93346.47;5010746;28;20251;-85
2022/01/27 05:02:01;;;;;;;11.83;11.13;;;;;;;-0.79;75.90;93377.66;5012556;28;20226;-85
2022/01/27 05:04:34;;;;;;;13.13;12.23;;;;;;;-0.80;75.57;93355.59;5010160;28;20259;-86
2022/01/27 05:07:00;;;;;;;11.73;10.93;;;;;;;-0.84;76.38;93367.22;5010363;28;20195;-85
2022/01/27 05:09:25;;;;;;;11.73;10.93;;;;;;;-1.01;76.27;93346.22;5009680;28;20250;-90
2022/01/27 05:12:09;;;;;;;11.57;10.87;;;;;;;-0.74;76.46;93377.88;5010537;28;20187;-84
2022/01/27 05:14:35;;;;;;;11.97;11.27;;;;;;;-0.62;76.58;93373.78;5009799;28;20242;-83
2022/01/27 05:17:00;;;;;;;12.43;11.63;;;;;;;-0.63;75.86;93367.88;5009486;28;21010;-84
2022/01/27 05:19:25;;;;;;;11.93;11.03;;;;;;;-0.48;74.71;93383.09;5008882;28;20307;-84
2022/01/27 05:21:51;;;;;;;12.00;11.00;;;;;;;-0.60;75.20;93387.19;5009489;28;20280;-85
2022/01/27 05:24:17;;;;;;;10.63;9.93;;;;;;;-0.77;74.66;93339.81;5008295;28;20223;-82
2022/01/27 05:26:43;;;;;;;11.67;10.87;;;;;;;-0.54;75.01;93382.09;5010175;28;20211;-86
2022/01/27 05:29:09;;;;;;;11.43;10.73;;;;;;;-0.66;74.86;93372.59;5008094;28;20231;-75
2022/01/27 05:31:35;;;;;;;12.23;11.53;;;;;;;-0.96;75.72;93332.84;5010273;28;20179;-77
2022/01/27 05:34:00;;;;;;;11.83;11.10;;;;;;;-0.68;76.35;93361.72;5007375;28;20229;-77
2022/01/27 05:36:26;;;;;;;10.87;10.27;;;;;;;-0.53;75.28;93393.16;5007833;28;20232;-75
2022/01/27 05:38:51;;;;;;;11.07;10.37;;;;;;;-0.68;76.09;93395.06;5010456;28;20242;-77
2022/01/27 05:41:17;;;;;;;12.07;11.37;;;;;;;-0.77;76.83;93385.94;5008182;28;20200;-77
2022/01/27 05:44:01;;;;;;;12.10;11.30;;;;;;;-0.79;76.83;93393.03;5007124;28;20179;-77
2022/01/27 05:46:27;;;;;;;11.73;11.13;;;;;;;-0.79;76.91;93352.03;5009450;28;20206;-79
2022/01/27 05:48:52;;;;;;;11.57;10.93;;;;;;;-0.68;76.18;93369.41;5009754;28;20231;-80
2022/01/27 05:51:18;;;;;;;11.17;10.47;;;;;;;-0.76;75.86;93377.28;5010766;28;20187;-78
2022/01/27 05:53:43;;;;;;;12.47;11.73;;;;;;;-0.74;75.90;93365.88;5007759;28;20207;-80
2022/01/27 05:56:08;;;;;;;11.37;10.67;;;;;;;-0.71;76.70;93396.25;5011766;28;20206;-80
2022/01/27 05:58:34;;;;;;;11.07;10.40;;;;;;;-0.75;76.80;93394.25;5011077;28;20231;-79
2022/01/27 06:00:59;;;;;;;11.67;10.77;;;;;;;-1.32;76.74;93329.75;5010544;28;20235;-81
2022/01/27 06:03:25;;;;;;;11.60;10.93;;;;;;;-0.85;76.93;93411.75;5011659;28;20215;-78
2022/01/27 06:05:50;;;;;;;12.13;11.33;;;;;;;-0.90;78.17;93401.28;5009745;28;21214;-78
2022/01/27 06:08:16;;;;;;;11.50;10.90;;;;;;;-0.97;77.51;93378.19;5009551;28;20200;-78
2022/01/27 06:10:41;;;;;;;12.60;11.90;;;;;;;-0.91;77.85;93402.25;5004826;28;20223;-79
2022/01/27 06:13:07;;;;;;;12.20;11.30;;;;;;;-1.75;78.86;93276.16;5005553;28;20258;-79
2022/01/27 06:15:33;;;;;;;13.50;12.67;;;;;;;-0.78;78.51;93420.25;5005189;28;20222;-79
2022/01/27 06:17:59;;;;;;;13.73;12.47;;;;;;;-1.08;79.63;93406.09;5007089;28;20228;-80
2022/01/27 06:20:24;;;;;;;12.33;11.60;;;;;;;-0.81;79.42;93423.22;5005038;28;20212;-79
2022/01/27 06:22:57;;;;;;;12.20;11.47;;;;;;;-0.92;79.08;93404.00;5006156;28;20233;-78
2022/01/27 06:25:24;;;;;;;12.83;12.03;;;;;;;-0.83;79.03;93422.59;5006795;28;20227;-78
2022/01/27 06:27:50;;;;;;;13.10;12.20;;;;;;;-0.84;79.75;93431.28;5006558;28;20172;-76
2022/01/27 06:30:16;;;;;;;12.03;11.33;;;;;;;-0.81;78.68;93428.34;5005867;28;20239;-76
2022/01/27 06:32:41;;;;;;;12.43;11.63;;;;;;;-0.92;79.97;93423.75;5004370;28;20184;-76
2022/01/27 06:35:07;;;;;;;13.23;12.33;;;;;;;-0.82;79.79;93430.09;5006327;28;20224;-76
2022/01/27 06:37:34;;;;;;;12.67;11.67;;;;;;;-0.76;77.29;93413.16;5008084;28;20210;-76
2022/01/27 06:40:00;;;;;;;14.93;13.63;;;;;;;-0.72;76.71;93415.16;5006988;28;20290;-77
2022/01/27 06:42:26;;;;;;;14.50;13.37;;;;;;;-0.46;76.32;93434.97;5007095;28;20215;-78
2022/01/27 06:44:51;;;;;;;13.97;12.87;;;;;;;-0.46;76.74;93440.91;5007392;28;20257;-78
2022/01/27 06:47:17;;;;;;;14.33;12.97;;;;;;;-0.48;76.95;93414.66;5008201;28;20274;-77
2022/01/27 06:49:43;;;;;;;13.27;11.93;;;;;;;-0.34;77.20;93402.66;5005727;28;20241;-76
2022/01/27 06:52:08;;;;;;;12.60;11.83;;;;;;;-0.38;77.11;93422.00;5005319;28;20212;-76
2022/01/27 07:05:56;;;;;;;14.25;13.25;;;;;;;-0.35;76.27;93424.16;5284019;23;20518;31
2022/01/27 07:08:22;;;;;;;16.10;14.80;;;;;;;-0.37;76.53;93428.69;4870555;29;20312;-80
2022/01/27 07:10:47;;;;;;;17.00;15.60;;;;;;;-0.54;76.78;93399.25;4901142;29;20227;-79
2022/01/27 07:13:14;;;;;;;13.93;12.93;;;;;;;-0.18;75.80;93433.09;4897593;29;20199;-80
2022/01/27 07:15:40;;;;;;;13.37;12.50;;;;;;;-0.51;75.77;93402.22;4884483;29;20227;-82
2022/01/27 07:18:05;;;;;;;14.70;13.47;;;;;;;-0.52;76.38;93412.66;4899437;29;20273;-78
2022/01/27 07:20:31;;;;;;;14.47;13.37;;;;;;;-0.10;76.10;93445.75;4884671;29;20259;-76
2022/01/27 07:22:56;;;;;;;12.87;11.87;;;;;;;-0.10;75.21;93445.75;4897343;29;20233;-76
2022/01/27 07:25:22;;;;;;;13.30;12.40;;;;;;;-0.11;75.97;93436.47;4898156;29;20681;-73
2022/01/27 07:27:47;;;;;;;13.60;12.53;;;;;;;0.02;75.06;93446.75;4901251;29;20196;-76
2022/01/27 07:30:12;;;;;;;13.53;12.57;;;;;;;0.12;73.92;93441.25;4898625;29;20218;-73
2022/01/27 07:32:38;;;;;;;15.33;14.10;;;;;;;0.06;74.38;93434.34;4899931;29;20201;-76
2022/01/27 07:35:04;;;;;;;19.23;17.33;;;;;;;-0.04;74.04;93429.56;4893455;29;20331;-76
2022/01/27 07:37:30;;;;;;;16.43;14.97;;;;;;;-0.04;76.39;93452.66;4900654;29;20249;-77
2022/01/27 07:39:56;;;;;;;15.63;14.23;;;;;;;0.06;75.15;93457.44;4899276;29;20243;-79
2022/01/27 07:42:23;;;;;;;15.23;13.80;;;;;;;-0.07;75.05;93441.03;4886949;29;20222;-83
2022/01/27 07:44:48;;;;;;;14.47;13.33;;;;;;;0.15;74.36;93454.50;4903437;29;20235;-81
2022/01/27 07:47:13;;;;;;;14.80;13.60;;;;;;;0.05;74.11;93443.81;4901424;29;20234;-79
2022/01/27 07:49:39;;;;;;;15.67;14.37;;;;;;;0.19;74.52;93450.53;4900337;29;20250;-88
2022/01/27 07:52:05;;;;;;;17.27;15.77;;;;;;;0.13;74.30;93448.75;4901969;29;20207;-86
2022/01/27 07:54:30;;;;;;;14.20;13.00;;;;;;;-0.23;75.26;93405.47;4903359;29;20249;-86
2022/01/27 07:56:56;;;;;;;15.43;14.23;;;;;;;0.11;74.44;93453.28;4902889;29;20199;-83
2022/01/27 07:59:21;;;;;;;12.87;11.97;;;;;;;-0.07;75.46;93453.06;4904636;29;20329;-82
2022/01/27 08:01:46;;;;;;;14.90;13.83;;;;;;;-0.19;76.67;93441.78;4908879;29;20242;-82
2022/01/27 08:04:12;;;;;;;14.47;13.47;;;;;;;-0.43;77.75;93419.22;4906522;29;20231;-82
2022/01/27 08:06:38;;;;;;;13.70;12.60;;;;;;;-0.34;77.49;93416.28;4903300;29;20231;-84
2022/01/27 08:09:04;;;;;;;14.53;13.20;;;;;;;-0.15;77.89;93448.91;4900947;29;20238;-76
2022/01/27 08:11:30;;;;;;;17.53;16.03;;;;;;;0.05;77.59;93464.34;4901060;29;20280;-76
2022/01/27 08:13:55;;;;;;;17.83;16.23;;;;;;;-0.20;78.43;93441.00;4902901;29;20242;-75
2022/01/27 08:16:21;;;;;;;16.43;15.10;;;;;;;-0.13;78.61;93441.00;4884832;29;20195;-76
2022/01/27 08:18:46;;;;;;;17.87;16.27;;;;;;;0.18;78.16;93448.97;4904784;29;21072;-77
2022/01/27 08:21:12;;;;;;;16.63;15.13;;;;;;;0.15;77.53;93439.09;4886485;29;20214;-76
2022/01/27 08:23:40;;;;;;;17.43;15.83;;;;;;;0.27;78.07;93450.38;4902117;29;20204;-77
2022/01/27 08:26:08;;;;;;;18.30;16.60;;;;;;;0.03;78.20;93437.28;4888735;29;20178;-77
2022/01/27 08:28:43;;;;;;;19.40;17.70;;;;;;;0.25;77.44;93475.44;4903128;29;20202;-77
2022/01/27 08:31:09;;;;;;;17.40;15.77;;;;;;;0.47;77.34;93474.28;4903067;29;20245;-76
2022/01/27 08:33:38;;;;;;;16.40;14.90;;;;;;;0.23;77.44;93477.44;4904878;29;20195;-76
2022/01/27 08:36:04;;;;;;;15.83;14.30;;;;;;;0.33;78.40;93467.56;4902804;29;20275;-76
2022/01/27 08:38:30;;;;;;;18.27;16.67;;;;;;;0.61;76.92;93481.00;4900812;29;20187;-78
2022/01/27 08:41:01;;;;;;;17.50;15.77;;;;;;;0.44;77.44;93479.00;4901713;29;20231;-76
2022/01/27 08:43:26;;;;;;;18.50;16.73;;;;;;;0.52;77.36;93482.19;4906428;29;20221;-78
2022/01/27 08:45:53;;;;;;;21.33;19.13;;;;;;;0.26;77.93;93453.13;4904076;29;20258;-77
2022/01/27 08:48:21;;;;;;;18.43;16.67;;;;;;;0.46;76.86;93462.44;4900936;29;20187;-78
2022/01/27 08:50:58;;;;;;;22.33;18.70;;;;;;;0.58;76.70;93476.28;4905103;29;20222;-78
2022/01/27 08:53:24;;;;;;;21.17;18.97;;;;;;;0.77;75.54;93461.84;4881589;29;20214;-78
2022/01/27 08:55:49;;;;;;;19.50;17.00;;;;;;;0.61;75.21;93445.03;4904693;29;20260;-76
2022/01/27 08:58:15;;;;;;;19.47;16.60;;;;;;;0.66;74.26;93441.88;4904358;29;20203;-76
2022/01/27 09:00:41;;;;;;;21.43;19.23;;;;;;;1.11;75.08;93482.16;4902505;29;20303;-76
2022/01/27 09:03:06;;;;;;;15.73;14.30;;;;;;;0.67;74.26;93443.47;4899804;29;20223;-79
2022/01/27 09:05:32;;;;;;;16.13;14.53;;;;;;;0.66;74.54;93476.06;4901525;29;20227;-77
2022/01/27 09:07:57;;;;;;;17.03;15.57;;;;;;;0.81;77.10;93484.38;4903689;29;20230;-77
2022/01/27 09:10:31;;;;;;;18.77;16.97;;;;;;;0.98;73.20;93490.69;4900810;29;21569;-76
2022/01/27 09:12:57;;;;;;;16.93;15.50;;;;;;;0.72;74.88;93493.28;4902411;29;20246;-78
2022/01/27 09:15:22;;;;;;;19.47;17.60;;;;;;;0.35;75.56;93454.50;4905248;29;20234;-77
2022/01/27 09:17:48;;;;;;;17.30;15.90;;;;;;;0.26;75.73;93466.75;4902606;29;20198;-78
2022/01/27 09:20:16;;;;;;;17.10;15.50;;;;;;;0.42;75.30;93456.09;4901485;29;20227;-76
2022/01/27 09:22:42;;;;;;;18.30;16.63;;;;;;;0.53;74.92;93483.75;4903086;29;20223;-77
2022/01/27 09:25:19;;;;;;;20.90;19.07;;;;;;;0.84;74.53;93458.28;4904218;29;20235;-78
2022/01/27 09:27:46;;;;;;;19.50;17.80;;;;;;;0.73;73.88;93455.53;4904223;29;20195;-80
2022/01/27 09:30:15;;;;;;;17.23;15.73;;;;;;;0.93;74.23;93480.25;4904789;29;20286;-79
2022/01/27 09:32:41;;;;;;;16.70;15.13;;;;;;;0.78;73.37;93424.91;4902904;29;20191;-79
2022/01/27 09:35:06;;;;;;;18.00;16.30;;;;;;;1.25;72.09;93448.53;4899634;29;20238;-81
2022/01/27 09:37:32;;;;;;;18.07;16.50;;;;;;;0.90;71.96;93442.06;4901314;29;20190;-80
2022/01/27 09:39:57;;;;;;;20.07;17.90;;;;;;;0.78;76.37;93471.91;4900832;29;20230;-79
2022/01/27 09:42:26;;;;;;;20.53;18.57;;;;;;;0.68;77.77;93471.53;4904486;29;20215;-79
2022/01/27 09:44:53;;;;;;;23.70;21.23;;;;;;;0.53;78.60;93455.50;4903617;29;20282;-78
2022/01/27 09:47:20;;;;;;;21.80;19.67;;;;;;;0.54;78.12;93430.63;4904188;29;20222;-79
2022/01/27 09:49:53;;;;;;;19.70;17.67;;;;;;;0.78;77.88;93450.59;4885311;29;20234;-79
2022/01/27 09:52:19;;;;;;;22.00;18.60;;;;;;;0.91;77.61;93469.34;4898996;29;20194;-79
2022/01/27 09:54:45;;;;;;;20.40;17.63;;;;;;;1.60;74.99;93464.47;4887425;29;20230;-79
2022/01/27 09:57:15;;;;;;;19.97;17.87;;;;;;;1.21;75.92;93467.13;4902226;29;20200;-76
2022/01/27 09:59:42;;;;;;;19.10;17.13;;;;;;;1.14;75.76;93462.00;4902166;29;20226;-79
2022/01/27 10:02:13;;;;;;;19.50;17.50;;;;;;;1.17;76.03;93471.88;4902275;29;20222;-80
2022/01/27 10:04:41;;;;;;;19.63;17.03;;;;;;;1.13;75.87;93455.28;4900197;29;20239;-79
2022/01/27 10:07:06;;;;;;;20.27;17.40;;;;;;;1.57;73.91;93463.06;4903545;29;20798;-78
2022/01/27 10:09:32;;;;;;;19.30;17.50;;;;;;;1.31;74.60;93458.00;4901715;29;20256;-79
2022/01/27 10:12:02;;;;;;;21.77;19.53;;;;;;;0.83;74.86;93456.69;4900506;29;20220;-80
2022/01/27 10:14:34;;;;;;;20.37;18.33;;;;;;;1.06;75.91;93464.78;4904383;29;20370;-83
2022/01/27 10:17:02;;;;;;;21.33;19.20;;;;;;;1.11;75.04;93459.03;4902645;29;20182;-82
2022/01/27 10:19:28;;;;;;;22.43;20.03;;;;;;;0.70;75.84;93387.31;4903246;29;20227;-82
2022/01/27 10:22:01;;;;;;;22.07;19.23;;;;;;;1.30;75.02;93429.91;4901755;29;20229;-77
2022/01/27 10:24:32;;;;;;;19.50;17.43;;;;;;;0.99;75.91;93446.03;4902356;29;20219;-77
2022/01/27 10:33:02;;;;;;;20.63;17.93;;;;;;;0.88;74.80;93415.78;4895366;29;20222;-79
2022/01/27 10:35:28;;;;;;;19.83;17.77;;;;;;;1.50;73.60;93453.78;4899628;29;20341;-77
2022/01/27 10:38:02;;;;;;;20.03;18.13;;;;;;;1.21;73.10;93429.38;4900692;29;20198;-75
2022/01/27 10:40:40;;;;;;;18.67;16.67;;;;;;;1.42;70.95;93443.72;4897890;29;20233;-75
2022/01/27 10:43:23;;;;;;;19.03;17.23;;;;;;;1.08;71.12;93431.16;4900728;29;20225;-75
2022/01/27 10:46:21;;;;;;;19.10;17.27;;;;;;;1.10;71.17;93424.84;4897783;29;20226;-74
2022/01/27 10:49:01;;;;;;;19.77;17.87;;;;;;;1.07;71.58;93435.53;4900644;29;20191;-75
2022/01/27 10:51:36;;;;;;;17.50;15.90;;;;;;;1.00;71.01;93427.03;4899893;29;20199;-75
2022/01/27 10:56:34;;;;;;;19.10;17.23;;;;;;;0.94;71.46;93416.75;4898635;29;20259;-77
2022/01/27 10:59:03;;;;;;;21.00;18.57;;;;;;;1.28;70.71;93426.75;4896781;29;20231;-77
2022/01/27 11:01:37;;;;;;;18.67;16.83;;;;;;;1.07;70.86;93404.69;4900704;29;20191;-77
2022/01/27 11:04:05;;;;;;;18.07;16.03;;;;;;;1.00;71.81;93419.31;4898968;29;20298;-79
2022/01/27 11:06:33;;;;;;;22.13;19.83;;;;;;;0.96;72.37;93418.16;4897502;29;20222;-78
2022/01/27 11:09:05;;;;;;;21.30;19.20;;;;;;;0.80;72.93;93418.56;4893240;29;20238;-78
2022/01/27 11:11:32;;;;;;;19.90;17.63;;;;;;;0.89;71.95;93417.34;4903325;29;20206;-75
2022/01/27 11:13:59;;;;;;;17.77;15.87;;;;;;;0.76;71.71;93411.44;4900171;29;20246;-77
2022/01/27 11:16:38;;;;;;;26.50;19.23;;;;;;;1.04;71.00;93415.34;4900969;29;20203;-78
2022/01/27 11:21:54;;;;;;;18.27;16.17;;;;;;;1.27;68.48;93404.59;4902891;29;20782;-78
2022/01/27 11:24:29;;;;;;;22.07;18.40;;;;;;;1.49;67.01;93400.78;4899333;29;20313;-76
2022/01/27 11:26:58;;;;;;;19.70;17.00;;;;;;;1.43;66.72;93376.63;4886728;29;20209;-86
2022/01/27 11:29:26;;;;;;;17.87;16.13;;;;;;;1.19;67.54;93385.06;4901020;29;20235;-76
2022/01/27 11:32:07;;;;;;;16.40;14.97;;;;;;;1.00;67.53;93378.19;4900251;29;20191;-76
2022/01/27 11:34:44;;;;;;;16.33;14.87;;;;;;;1.07;67.30;93399.53;4904182;29;20242;-74
2022/01/27 11:37:10;;;;;;;20.47;16.60;;;;;;;1.13;67.80;93378.16;4905165;29;20195;-78
2022/01/27 11:39:51;;;;;;;14.23;13.13;;;;;;;1.50;67.56;93400.56;4904649;29;20243;-76
2022/01/27 11:42:55;;;;;;;14.97;13.70;;;;;;;1.55;66.31;93376.81;4905963;29;21351;-77
2022/01/27 11:45:20;;;;;;;15.63;14.37;;;;;;;1.79;65.70;93388.94;4874044;29;20224;-76
2022/01/27 11:47:57;;;;;;;14.80;13.57;;;;;;;2.18;65.25;93388.69;4900448;29;20257;-77
2022/01/27 11:51:12;;;;;;;15.47;14.17;;;;;;;2.05;66.24;93383.66;4907680;29;20308;-77
2022/01/27 11:53:51;;;;;;;14.77;13.57;;;;;;;2.01;64.37;93373.97;4898941;29;20210;-77
2022/01/27 11:56:23;;;;;;;14.73;13.53;;;;;;;1.89;64.58;93383.34;4905877;29;20283;-76
2022/01/27 11:58:50;;;;;;;14.10;12.93;;;;;;;1.70;65.38;93374.72;4905604;29;20248;-75
2022/01/27 12:01:23;;;;;;;15.67;14.43;;;;;;;2.16;64.50;93387.34;4902751;29;20199;-79
2022/01/27 12:04:09;;;;;;;14.10;12.93;;;;;;;2.33;64.12;93391.00;4903874;29;20191;-79
2022/01/27 12:06:40;;;;;;;15.10;13.70;;;;;;;1.62;64.92;93393.78;4906725;29;20227;-77
2022/01/27 12:09:21;;;;;;;15.27;13.97;;;;;;;1.73;66.12;93389.00;4902766;29;20239;-77
2022/01/27 12:12:24;;;;;;;15.80;14.60;;;;;;;1.46;65.81;93396.03;4905457;29;20261;-77
2022/01/27 12:14:55;;;;;;;14.00;12.93;;;;;;;1.69;67.09;93386.03;4901514;29;20267;-77
2022/01/27 12:17:22;;;;;;;15.37;14.07;;;;;;;1.58;64.86;93372.03;4903254;29;20196;-78
2022/01/27 12:19:56;;;;;;;14.23;13.13;;;;;;;1.46;64.41;93383.94;4903565;29;20234;-78
2022/01/27 12:22:28;;;;;;;15.07;13.67;;;;;;;1.09;65.85;93371.81;4900974;29;20246;-78
2022/01/27 12:24:57;;;;;;;14.60;13.60;;;;;;;0.74;65.85;93372.31;4902877;29;20348;-76
2022/01/27 12:27:25;;;;;;;15.10;13.90;;;;;;;0.52;67.33;93364.03;4901368;29;20199;-78
2022/01/27 12:29:53;;;;;;;14.37;13.23;;;;;;;0.68;67.19;93362.84;4899096;29;20230;-77